Time;durP1;ratioP1;P1;durP2;ratioP2;P2;SDS_P1;SDS_P2;PMS_P1;PMS_P2;Temp;Humidity;BMP_temperature;BMP_pressure;BME280_temperature;BME280_humidity;BME280_pressure;Samples;Min_cycle;Max_cycle;Signal;HPM_P1;HPM_P2
2021/03/25 00:04:29;;;;;;;1999.90;999.90;;;;;;;5.71;69.09;101507.94;15837244;28;20495;-67
2021/03/25 00:12:02;;;;;;;1999.90;999.90;;;;;;;5.74;69.32;101498.28;15841497;28;20056;-68
2021/03/25 00:19:33;;;;;;;1999.90;999.90;;;;;;;5.72;69.47;101486.63;15830644;28;20048;-69
2021/03/25 00:27:08;;;;;;;1999.90;999.90;;;;;;;5.82;69.28;101483.00;15794050;28;20059;-68
2021/03/25 00:34:40;;;;;;;1999.90;999.90;;;;;;;5.78;69.31;101489.09;15847510;28;20050;-69
2021/03/25 00:42:12;;;;;;;1999.90;999.90;;;;;;;5.77;69.56;101484.69;15829994;28;20381;-68
2021/03/25 00:49:44;;;;;;;1999.90;999.90;;;;;;;5.64;69.61;101481.69;15849487;28;20145;-69
2021/03/25 00:57:16;;;;;;;1999.90;999.90;;;;;;;5.65;70.15;101475.88;15842834;28;20452;-68
2021/03/25 01:04:47;;;;;;;1999.90;999.90;;;;;;;5.59;70.73;101479.75;15831197;28;20165;-69
2021/03/25 01:12:20;;;;;;;1999.90;999.90;;;;;;;5.86;70.62;101473.84;15835333;28;20044;-66
2021/03/25 01:19:52;;;;;;;1999.90;999.90;;;;;;;5.67;70.36;101470.88;15844329;28;20051;-70
2021/03/25 01:27:24;;;;;;;1999.90;999.90;;;;;;;5.68;70.06;101468.91;15827516;28;20043;-68
2021/03/25 01:34:56;;;;;;;1999.90;999.90;;;;;;;5.53;70.20;101474.53;15847576;28;20333;-66
2021/03/25 01:42:30;;;;;;;1999.90;999.90;;;;;;;5.54;69.95;101467.88;15806677;28;20052;-67
2021/03/25 01:50:03;;;;;;;1999.90;999.90;;;;;;;5.39;70.02;101461.25;15818216;28;20046;-67
2021/03/25 01:57:57;;;;;;;1999.90;999.90;;;;;;;5.40;69.97;101451.81;15803966;28;20040;-69
2021/03/25 02:05:41;;;;;;;1999.90;999.90;;;;;;;5.32;70.34;101454.38;15837566;28;20529;-69
2021/03/25 02:13:27;;;;;;;1999.90;999.90;;;;;;;5.20;70.62;101455.47;15801335;28;20035;-68
2021/03/25 02:21:38;;;;;;;1999.90;999.90;;;;;;;5.16;70.30;101450.78;15809188;28;20048;-68
2021/03/25 02:29:33;;;;;;;1999.90;999.90;;;;;;;5.03;70.24;101454.13;15798974;28;20431;-68
2021/03/25 02:37:11;;;;;;;1999.90;999.90;;;;;;;4.97;70.18;101444.97;15830613;28;20039;-69
2021/03/25 02:44:50;;;;;;;1999.90;999.90;;;;;;;4.85;70.86;101441.69;15803977;28;20115;-68
2021/03/25 02:52:30;;;;;;;1999.90;999.90;;;;;;;4.81;70.61;101448.88;15823429;28;20449;-68
2021/03/25 03:00:09;;;;;;;1999.90;999.90;;;;;;;4.71;70.70;101444.19;15839239;28;20044;-68
2021/03/25 03:07:46;;;;;;;1999.90;999.90;;;;;;;4.68;70.81;101444.72;15834125;28;20167;-70
2021/03/25 03:15:29;;;;;;;1999.90;999.90;;;;;;;4.54;70.57;101438.06;15817243;28;20050;-69
2021/03/25 03:23:10;;;;;;;1999.90;999.90;;;;;;;4.48;70.55;101442.78;15803331;28;20044;-69
2021/03/25 03:30:44;;;;;;;;;;;;;;;4.54;70.30;101449.13;15834144;28;20047;-69
2021/03/25 03:38:35;;;;;;;1999.90;999.90;;;;;;;4.33;71.29;101451.88;15828336;28;20280;-69
2021/03/25 03:46:21;;;;;;;1999.90;999.90;;;;;;;4.27;70.80;101454.88;15856286;28;20507;-70
2021/03/25 03:53:57;;;;;;;1999.90;999.90;;;;;;;4.43;70.32;101456.56;15830265;28;20044;-68
2021/03/25 04:01:38;;;;;;;1999.90;999.90;;;;;;;4.36;71.15;101447.72;15853735;28;20048;-67
2021/03/25 04:09:22;;;;;;;1999.90;999.90;;;;;;;4.34;71.35;101448.00;15824745;28;20083;-67
2021/03/25 04:17:05;;;;;;;1999.90;999.90;;;;;;;4.07;71.72;101449.34;15852737;28;20042;-69
2021/03/25 04:24:46;;;;;;;1999.90;999.90;;;;;;;4.14;71.14;101455.41;15864077;28;20065;-69
2021/03/25 04:32:20;;;;;;;1999.90;999.90;;;;;;;4.03;71.08;101463.66;15922893;28;20040;-69
2021/03/25 04:39:52;;;;;;;1999.90;999.90;;;;;;;4.10;70.69;101465.34;15878220;28;20347;-68
2021/03/25 04:47:29;;;;;;;1999.90;999.90;;;;;;;4.09;71.21;101456.25;15861092;28;20032;-68
2021/03/25 04:55:07;;;;;;;1999.90;999.90;;;;;;;3.99;71.72;101454.28;15847311;28;20043;-69
2021/03/25 05:02:39;;;;;;;1999.90;999.90;;;;;;;4.02;71.78;101456.47;15856397;28;20113;-68
2021/03/25 05:10:18;;;;;;;1999.90;999.90;;;;;;;3.98;71.68;101471.94;15814825;28;20040;-66
2021/03/25 05:17:56;;;;;;;1999.90;999.90;;;;;;;4.13;71.77;101467.56;15831415;28;20066;-70
2021/03/25 05:25:36;;;;;;;1999.90;999.90;;;;;;;4.08;71.42;101470.31;15840055;28;20075;-67
2021/03/25 05:33:13;;;;;;;1999.90;999.90;;;;;;;4.14;72.11;101475.56;15827502;28;20036;-70
2021/03/25 05:40:49;;;;;;;1999.90;999.90;;;;;;;4.52;71.28;101479.81;15806764;28;20356;-67
2021/03/25 05:48:43;;;;;;;1999.90;999.90;;;;;;;4.56;70.84;101480.09;15782613;22;20419;-63
2021/03/25 05:56:30;;;;;;;1999.90;999.90;;;;;;;4.90;70.71;101483.19;15734991;28;20040;-61
2021/03/25 06:04:05;;;;;;;1999.90;999.90;;;;;;;5.12;70.80;101496.72;15704895;28;20044;-61
2021/03/25 06:11:51;;;;;;;1999.90;999.90;;;;;;;5.69;69.94;101495.50;15734363;28;20048;-60
2021/03/25 06:19:40;;;;;;;1999.90;999.90;;;;;;;5.98;69.50;101509.56;15733282;28;20388;-58
2021/03/25 06:27:24;;;;;;;1999.90;999.90;;;;;;;6.31;70.17;101497.75;15734055;28;20123;-61
2021/03/25 06:35:01;;;;;;;1999.90;999.90;;;;;;;6.80;68.55;101518.28;15733605;28;20546;-61
2021/03/25 06:42:40;;;;;;;1999.90;999.90;;;;;;;7.30;67.59;101516.19;15732796;28;20484;-59
2021/03/25 06:50:15;;;;;;;1999.90;999.90;;;;;;;8.65;62.92;101528.81;15732089;28;20493;-60
2021/03/25 06:57:54;;;;;;;1999.90;999.90;;;;;;;9.69;61.01;101529.56;15733582;28;20052;-59
2021/03/25 07:05:28;;;;;;;1999.90;999.90;;;;;;;9.57;61.09;101532.03;15726578;28;20101;-56
2021/03/25 07:13:05;;;;;;;1999.90;999.90;;;;;;;10.33;59.62;101548.13;15746215;28;20051;-61
2021/03/25 07:20:37;;;;;;;1999.90;999.90;;;;;;;10.41;59.85;101549.34;15745633;28;20098;-60
2021/03/25 07:28:14;;;;;;;1999.90;999.90;;;;;;;11.91;56.78;101558.28;15727009;28;20159;-62
2021/03/25 07:35:48;;;;;;;1999.90;999.90;;;;;;;12.74;55.05;101563.16;15745616;28;20036;-58
2021/03/25 07:43:24;;;;;;;1999.90;999.90;;;;;;;13.57;52.77;101570.25;15745320;28;20064;-57
2021/03/25 07:51:11;;;;;;;1999.90;999.90;;;;;;;14.65;49.33;101567.19;15727061;28;20075;-59
2021/03/25 07:58:45;;;;;;;1999.90;999.90;;;;;;;14.83;49.85;101574.34;15725960;28;20052;-59
2021/03/25 08:06:20;;;;;;;1999.90;999.90;;;;;;;16.03;47.63;101582.84;15708358;28;20053;-60
2021/03/25 08:13:56;;;;;;;1999.90;999.90;;;;;;;16.57;46.66;101587.44;15708698;28;20412;-58
2021/03/25 08:21:41;;;;;;;1999.90;999.90;;;;;;;17.05;44.87;101597.06;15709141;28;20049;-58
2021/03/25 08:29:20;;;;;;;1999.90;999.90;;;;;;;17.60;44.26;101580.16;15723762;28;20408;-62
2021/03/25 08:37:04;;;;;;;1999.90;999.90;;;;;;;16.27;47.57;101586.88;15706956;28;20059;-58
2021/03/25 08:44:43;;;;;;;1999.90;999.90;;;;;;;16.95;47.35;101598.38;15739782;28;20136;-60
2021/03/25 08:52:17;;;;;;;1999.90;999.90;;;;;;;17.69;44.86;101594.16;15740774;28;20045;-61
2021/03/25 09:00:01;;;;;;;1999.90;999.90;;;;;;;18.70;42.83;101601.25;15739396;28;20140;-61
2021/03/25 09:08:20;;;;;;;1999.90;999.90;;;;;;;19.69;39.99;101596.16;15671125;28;20106;-61
2021/03/25 09:15:55;;;;;;;1999.90;999.90;;;;;;;19.42;40.52;101595.19;15676994;28;20438;-57
2021/03/25 09:23:46;;;;;;;1999.90;999.90;;;;;;;20.27;38.49;101594.03;15658441;28;20136;-57
2021/03/25 09:31:20;;;;;;;1999.90;999.90;;;;;;;20.55;37.72;101585.22;15676256;28;20045;-57
2021/03/25 09:39:16;;;;;;;1999.90;999.90;;;;;;;21.75;35.56;101590.13;15642658;28;20068;-59
2021/03/25 09:47:08;;;;;;;1999.90;999.90;;;;;;;22.56;34.42;101575.06;15676123;28;20052;-60
2021/03/25 09:54:42;;;;;;;1999.90;999.90;;;;;;;21.76;34.50;101584.03;15657928;28;20450;-59
2021/03/25 10:02:34;;;;;;;1999.90;999.90;;;;;;;21.50;35.26;101578.47;15657290;28;20045;-58
2021/03/25 10:10:20;;;;;;;;;;;;;;;22.79;33.99;101577.69;15673633;28;20136;-59
2021/03/25 10:17:54;;;;;;;1999.90;999.90;;;;;;;23.01;34.11;101573.78;15643282;28;19927;-60
2021/03/25 10:25:28;;;;;;;1999.90;999.90;;;;;;;23.48;32.42;101577.69;15673685;28;20045;-58
2021/03/25 10:33:06;;;;;;;1999.90;999.90;;;;;;;23.29;33.34;101565.38;15654839;28;20048;-58
2021/03/25 10:40:40;;;;;;;1999.90;999.90;;;;;;;23.50;32.01;101563.84;15654403;28;20180;-56
2021/03/25 10:48:19;;;;;;;1999.90;999.90;;;;;;;23.40;32.18;101562.59;15686239;28;20119;-58
2021/03/25 10:56:01;;;;;;;1999.90;999.90;;;;;;;23.80;31.96;101555.81;15734756;28;20094;-60
2021/03/25 11:03:36;;;;;;;1999.90;999.90;;;;;;;23.95;31.99;101565.19;15730699;28;20041;-58
2021/03/25 11:11:14;;;;;;;1999.90;999.90;;;;;;;21.55;34.76;101553.38;15731496;28;20048;-60
2021/03/25 11:18:49;;;;;;;1999.90;999.90;;;;;;;20.72;36.10;101544.13;15732754;28;20448;-59
2021/03/25 11:26:21;;;;;;;1999.90;999.90;;;;;;;22.09;33.77;101545.44;15731738;28;20044;-58
2021/03/25 11:33:55;;;;;;;1999.90;999.90;;;;;;;24.07;31.71;101541.19;15728514;28;20037;-57
2021/03/25 11:41:34;;;;;;;1999.90;999.90;;;;;;;22.88;32.98;101532.66;15728418;28;20048;-57
2021/03/25 11:49:12;;;;;;;1999.90;999.90;;;;;;;20.95;35.25;101530.72;15730784;28;20063;-56
2021/03/25 11:56:49;;;;;;;1999.90;999.90;;;;;;;21.95;33.85;101536.75;15741195;28;20488;-56
2021/03/25 12:04:26;;;;;;;1999.90;999.90;;;;;;;21.61;33.66;101523.44;15742299;28;20556;-55
2021/03/25 12:11:59;;;;;;;1999.90;999.90;;;;;;;21.21;34.26;101518.47;15724263;28;20052;-57
2021/03/25 12:19:34;;;;;;;1999.90;999.90;;;;;;;23.64;31.45;101514.66;15740979;28;20083;-57
2021/03/25 12:27:09;;;;;;;1999.90;999.90;;;;;;;23.67;30.54;101509.00;15740397;28;20207;-57
2021/03/25 12:34:41;;;;;;;1999.90;999.90;;;;;;;24.48;29.73;101501.69;15737798;28;20492;-59
2021/03/25 12:42:15;;;;;;;1999.90;999.90;;;;;;;24.65;28.31;101500.03;15740609;28;20048;-60
2021/03/25 12:49:48;;;;;;;1999.90;999.90;;;;;;;25.73;28.12;101498.38;15741752;28;20079;-61
2021/03/25 12:57:22;;;;;;;1999.90;999.90;;;;;;;23.89;29.87;101481.34;15721293;28;20048;-62
2021/03/25 13:04:55;;;;;;;1999.90;999.90;;;;;;;24.12;30.05;101472.38;15721991;28;20044;-57
2021/03/25 13:12:29;;;;;;;1999.90;999.90;;;;;;;22.88;31.31;101472.88;15721379;28;20040;-58
2021/03/25 13:20:01;;;;;;;1999.90;999.90;;;;;;;25.38;27.82;101465.91;15738504;28;20060;-61
2021/03/25 13:27:33;;;;;;;1999.90;999.90;;;;;;;23.02;31.39;101462.38;15721033;28;20531;-59
2021/03/25 13:35:07;;;;;;;1999.90;999.90;;;;;;;24.72;30.37;101462.94;15721692;28;20082;-57
2021/03/25 13:42:41;;;;;;;1999.90;999.90;;;;;;;23.52;30.88;101451.13;15738392;28;20045;-57
2021/03/25 13:50:16;;;;;;;1999.90;999.90;;;;;;;23.52;31.04;101453.97;15720420;28;20041;-61
2021/03/25 13:57:47;;;;;;;1999.90;999.90;;;;;;;22.38;32.21;101439.25;15720183;28;20044;-62
2021/03/25 14:05:21;;;;;;;1999.90;999.90;;;;;;;20.82;35.07;101444.22;15719731;28;20051;-61
2021/03/25 14:12:54;;;;;;;1999.90;999.90;;;;;;;20.77;36.78;101440.91;15737429;28;20119;-61
2021/03/25 14:20:28;;;;;;;1999.90;999.90;;;;;;;20.10;36.13;101439.50;15737731;28;20178;-60
2021/03/25 14:28:00;;;;;;;1999.90;999.90;;;;;;;20.26;36.63;101430.03;15726251;28;20048;-60
2021/03/25 14:35:35;;;;;;;1999.90;999.90;;;;;;;20.11;36.58;101429.84;15717076;28;20423;-61
2021/03/25 14:43:08;;;;;;;1999.90;999.90;;;;;;;20.06;37.14;101427.31;15738112;28;20223;-61
2021/03/25 14:50:41;;;;;;;1999.90;999.90;;;;;;;19.81;38.94;101426.91;15742050;28;20445;-61
2021/03/25 14:58:12;;;;;;;1999.90;999.90;;;;;;;20.26;37.56;101433.69;15718299;28;20055;-57
2021/03/25 15:05:45;;;;;;;1999.90;999.90;;;;;;;20.34;37.94;101432.59;15728700;28;20041;-61
2021/03/25 15:13:18;;;;;;;1999.90;999.90;;;;;;;19.26;39.49;101431.13;15714842;28;20064;-61
2021/03/25 15:20:53;;;;;;;1999.90;999.90;;;;;;;19.67;40.05;101428.69;15714568;28;20044;-62
2021/03/25 15:28:28;;;;;;;1999.90;999.90;;;;;;;19.22;40.15;101422.59;15717983;28;20041;-62
2021/03/25 15:36:04;;;;;;;1999.90;999.90;;;;;;;19.12;39.94;101422.38;15727057;28;20186;-60
2021/03/25 15:43:37;;;;;;;1999.90;999.90;;;;;;;19.04;41.08;101427.06;15759839;28;20047;-61
2021/03/25 15:51:11;;;;;;;1999.90;999.90;;;;;;;18.69;41.75;101428.00;15756506;28;20479;-63
2021/03/25 15:58:43;;;;;;;1999.90;999.90;;;;;;;18.91;40.74;101423.59;15735989;28;20147;-60
2021/03/25 16:06:16;;;;;;;1999.90;999.90;;;;;;;18.43;41.91;101425.75;15739400;28;20052;-60
2021/03/25 16:13:48;;;;;;;1999.90;999.90;;;;;;;18.40;42.48;101434.16;15749186;28;20106;-59
2021/03/25 16:21:21;;;;;;;1999.90;999.90;;;;;;;17.82;43.76;101432.00;15741945;28;20057;-60
2021/03/25 16:28:54;;;;;;;1999.90;999.90;;;;;;;18.02;43.47;101427.22;15728745;28;20044;-61
2021/03/25 16:36:26;;;;;;;1999.90;999.90;;;;;;;17.45;44.39;101422.94;15706930;28;20029;-62
2021/03/25 16:43:58;;;;;;;1999.90;999.90;;;;;;;17.63;44.58;101437.53;15725200;28;20109;-61
2021/03/25 16:51:33;;;;;;;1999.90;999.90;;;;;;;16.91;46.23;101439.59;15719547;28;20035;-61
2021/03/25 16:59:04;;;;;;;1999.90;999.90;;;;;;;16.85;46.44;101438.19;15740389;28;20048;-61
2021/03/25 17:06:36;;;;;;;1999.90;999.90;;;;;;;16.74;46.93;101452.78;15742132;28;20438;-60
2021/03/25 17:14:09;;;;;;;1999.90;999.90;;;;;;;16.69;47.15;101455.88;15743911;28;20431;-59
2021/03/25 17:21:41;;;;;;;1999.90;999.90;;;;;;;16.57;47.86;101463.47;15679593;28;20071;-56
2021/03/25 17:29:13;;;;;;;1999.90;999.90;;;;;;;16.28;48.22;101456.97;15714248;28;20686;-60
2021/03/25 17:36:46;;;;;;;1999.90;999.90;;;;;;;16.01;48.08;101466.13;15712218;28;20236;-60
2021/03/25 17:44:17;;;;;;;1999.90;999.90;;;;;;;15.87;49.14;101467.31;15713234;28;20172;-60
2021/03/25 17:51:50;;;;;;;1999.90;999.90;;;;;;;15.75;49.25;101453.25;15725921;28;20048;-61
2021/03/25 17:59:22;;;;;;;1999.90;999.90;;;;;;;15.43;50.55;101460.53;15709039;28;20144;-57
2021/03/25 18:06:54;;;;;;;1999.90;999.90;;;;;;;15.09;51.22;101464.53;15735931;28;20044;-64
2021/03/25 18:14:26;;;;;;;1999.90;999.90;;;;;;;14.78;52.15;101469.75;15713368;28;20063;-63
2021/03/25 18:21:58;;;;;;;1999.90;999.90;;;;;;;14.56;52.57;101485.78;15708552;28;20048;-62
2021/03/25 18:29:29;;;;;;;1999.90;999.90;;;;;;;14.38;52.86;101485.09;15735494;28;20036;-61
2021/03/25 18:37:02;;;;;;;1999.90;999.90;;;;;;;14.14;53.27;101493.28;15720634;28;20099;-60
2021/03/25 18:44:36;;;;;;;1999.90;999.90;;;;;;;13.90;53.95;101488.31;15701659;28;20124;-62
2021/03/25 18:52:12;;;;;;;1999.90;999.90;;;;;;;13.66;54.95;101485.28;15735032;28;20052;-62
2021/03/25 18:59:44;;;;;;;1999.90;999.90;;;;;;;13.34;55.83;101497.88;15727067;28;20479;-60
2021/03/25 19:07:16;;;;;;;1999.90;999.90;;;;;;;13.15;56.62;101487.84;15728419;28;20047;-62
2021/03/25 19:14:48;;;;;;;1999.90;999.90;;;;;;;13.01;56.85;101490.81;15740644;28;20130;-63
2021/03/25 19:22:20;;;;;;;1999.90;999.90;;;;;;;12.72;57.71;101496.28;15738257;28;20044;-63
2021/03/25 19:29:52;;;;;;;1999.90;999.90;;;;;;;12.58;58.26;101495.59;15740102;28;20049;-63
2021/03/25 19:37:24;;;;;;;1999.90;999.90;;;;;;;12.45;58.62;101510.56;15745478;28;20047;-64
2021/03/25 19:44:56;;;;;;;1999.90;999.90;;;;;;;12.34;58.48;101507.25;15739510;28;20045;-60
2021/03/25 19:52:28;;;;;;;1999.90;999.90;;;;;;;12.28;58.91;101508.53;15664499;28;20381;-62
2021/03/25 20:00:04;;;;;;;1999.90;999.90;;;;;;;12.10;58.90;101511.31;15689780;28;20132;-62
2021/03/25 20:07:37;;;;;;;1999.90;999.90;;;;;;;11.89;59.58;101509.41;15751348;28;20039;-61
2021/03/25 20:15:12;;;;;;;1999.90;999.90;;;;;;;11.74;59.66;101499.44;15759461;28;20113;-62
2021/03/25 20:22:44;;;;;;;1999.90;999.90;;;;;;;11.54;60.31;101507.22;15739570;28;20041;-63
2021/03/25 20:30:20;;;;;;;1999.90;999.90;;;;;;;11.32;61.04;101512.84;15745077;28;20098;-63
2021/03/25 20:37:53;;;;;;;1999.90;999.90;;;;;;;11.15;61.09;101523.88;15756658;28;20056;-61
2021/03/25 20:45:28;;;;;;;1999.90;999.90;;;;;;;11.07;61.43;101516.28;15722513;28;20346;-59
2021/03/25 20:53:02;;;;;;;1999.90;999.90;;;;;;;11.08;62.24;101515.16;15667163;28;20068;-61
2021/03/25 21:00:36;;;;;;;1999.90;999.90;;;;;;;10.92;63.07;101526.66;15676780;28;20473;-62
2021/03/25 21:08:10;;;;;;;1999.90;999.90;;;;;;;11.33;62.48;101530.44;15674180;28;20045;-61
2021/03/25 21:15:44;;;;;;;1999.90;999.90;;;;;;;11.39;62.88;101530.00;15655128;28;20045;-63
2021/03/25 21:23:19;;;;;;;;;;;;;;;11.69;62.38;101547.94;15694263;28;20162;-61
2021/03/25 21:30:51;;;;;;;1999.90;999.90;;;;;;;11.67;62.52;101538.19;15677391;28;20439;-62
2021/03/25 21:38:24;;;;;;;1999.90;999.90;;;;;;;11.76;62.02;101533.47;15640295;28;20136;-63
2021/03/25 21:45:58;;;;;;;1999.90;999.90;;;;;;;11.72;62.24;101533.31;15669370;28;20040;-65
2021/03/25 21:53:31;;;;;;;;;;;;;;;11.82;63.69;101551.81;15737412;28;20040;-62
2021/03/25 22:01:04;;;;;;;1999.90;999.90;;;;;;;11.73;64.37;101550.91;15736398;28;19920;-63
2021/03/25 22:08:37;;;;;;;;;;;;;;;11.84;64.25;101536.34;15735824;28;20036;-63
2021/03/25 22:16:10;;;;;;;1999.90;999.90;;;;;;;11.70;64.62;101532.00;15724840;28;19924;-63
2021/03/25 22:23:42;;;;;;;1999.90;999.90;;;;;;;11.69;64.74;101538.72;15787290;28;20052;-63
2021/03/25 22:31:14;;;;;;;1999.90;999.90;;;;;;;11.56;65.08;101532.06;15718464;28;20106;-62
2021/03/25 22:38:46;;;;;;;1999.90;999.90;;;;;;;11.41;64.65;101533.28;15733898;28;20041;-63
2021/03/25 22:46:19;;;;;;;1999.90;999.90;;;;;;;11.25;65.45;101535.66;15733769;28;20032;-63
2021/03/25 22:53:54;;;;;;;1999.90;999.90;;;;;;;11.07;66.05;101533.06;15734729;28;20404;-63
2021/03/25 23:01:31;;;;;;;1999.90;999.90;;;;;;;10.99;66.39;101523.47;15714207;28;20067;-64
2021/03/25 23:09:08;;;;;;;1999.90;999.90;;;;;;;11.14;65.55;101536.22;15734116;28;20550;-63
2021/03/25 23:16:42;;;;;;;1999.90;999.90;;;;;;;10.97;66.01;101542.50;15732941;28;20037;-63
2021/03/25 23:24:18;;;;;;;1999.90;999.90;;;;;;;10.74;66.09;101527.69;15731415;28;20041;-61
2021/03/25 23:31:53;;;;;;;1999.90;999.90;;;;;;;10.48;66.65;101526.59;15716132;28;20040;-63
2021/03/25 23:39:27;;;;;;;1999.90;999.90;;;;;;;10.20;66.65;101531.34;15731683;28;20505;-63
2021/03/25 23:46:59;;;;;;;1999.90;999.90;;;;;;;9.98;66.34;101523.72;15704516;28;20076;-63
2021/03/25 23:54:32;;;;;;;1999.90;999.90;;;;;;;9.88;66.75;101527.53;15726451;28;20044;-63
